Terminal Aerodrome Forecast
Issued by NWS Detroit/Pontiac, MI

Home | Current Version | Previous Version | Text Only | Print | Product List | Glossary On
Versions: 1 2 3 4 5 6 7 8 9 10 11 12 13 14 15 16 17 18 19 20 21
959
FTUS43 KDTX 110645 AAB
TAFFNT
TAF AMD
KFNT 110645Z 1107/1206 19005KT 3SM -SN SCT025 OVC040
     FM111100 15009KT 2SM -SN OVC015
     FM111600 15010KT 3/4SM -SN OVC010
     FM112000 17010KT 1/2SM SN OVC006
     FM120200 18008KT 3/4SM -SN OVC009=

USA.gov is the U.S. government's official web portal to all federal, state and local government web resources and services.